createdAt,value
2019-06-07T00:01:57.244Z,7.58
2019-06-07T00:04:29.561Z,7.58
2019-06-07T00:07:02.034Z,9.03
2019-06-07T00:09:34.815Z,6.80
2019-06-07T00:12:09.498Z,7.72
2019-06-07T00:17:15.472Z,9.30
2019-06-07T00:22:32.197Z,14.40
2019-06-07T00:24:53.656Z,9.98
2019-06-07T00:27:26.134Z,12.73
2019-06-07T00:29:59.020Z,12.15
2019-06-07T00:32:31.705Z,10.03
2019-06-07T00:35:06.431Z,8.93
2019-06-07T00:37:38.904Z,13.78
2019-06-07T00:40:17.840Z,9.20
2019-06-07T00:42:46.265Z,11.90
2019-06-07T00:45:21.873Z,11.43
2019-06-07T00:47:53.407Z,11.40
2019-06-07T00:50:26.091Z,10.98
2019-06-07T00:53:14.661Z,11.12
2019-06-07T00:55:32.879Z,8.45
2019-06-07T00:58:07.299Z,9.13
2019-06-07T01:00:39.778Z,9.50
2019-06-07T01:03:12.706Z,12.60
2019-06-07T01:05:45.146Z,10.90
2019-06-07T01:08:21.534Z,12.25
2019-06-07T01:13:26.891Z,10.35
2019-06-07T01:15:59.336Z,8.03
2019-06-07T01:18:38.252Z,10.98
2019-06-07T01:21:06.334Z,7.47
2019-06-07T01:24:10.885Z,12.45
2019-06-07T01:26:13.022Z,8.53
2019-06-07T01:28:45.806Z,9.78
2019-06-07T01:31:21.086Z,12.30
2019-06-07T01:36:25.239Z,14.90
2019-06-07T01:38:58.268Z,16.70
2019-06-07T01:41:31.149Z,18.05
2019-06-07T01:44:03.728Z,19.17
2019-06-07T01:46:36.513Z,17.75
2019-06-07T01:49:09.393Z,22.75
2019-06-07T01:51:42.076Z,23.67
2019-06-07T01:54:49.453Z,17.00
2019-06-07T01:56:48.763Z,18.70
2019-06-07T01:59:23.265Z,17.25
2019-06-07T02:01:55.863Z,18.73
2019-06-07T02:04:32.393Z,18.92
2019-06-07T02:09:34.414Z,16.10
2019-06-07T02:12:25.036Z,15.32
2019-06-07T02:17:12.662Z,21.50
2019-06-07T02:19:45.470Z,19.00
2019-06-07T02:22:17.922Z,20.80
2019-06-07T02:25:27.693Z,17.05
2019-06-07T02:27:26.070Z,22.50
2019-06-07T02:29:59.055Z,27.52
2019-06-07T02:32:36.599Z,20.72
2019-06-07T02:37:40.535Z,18.15
2019-06-07T02:40:16.099Z,15.48
2019-06-07T02:42:48.568Z,14.80
2019-06-07T02:45:24.168Z,18.82
2019-06-07T02:50:29.219Z,20.85
2019-06-07T02:53:01.662Z,17.02
2019-06-07T02:56:10.620Z,16.25
2019-06-07T02:58:08.647Z,20.10
2019-06-07T03:01:08.905Z,19.37
2019-06-07T03:03:29.933Z,14.07
2019-06-07T03:08:35.514Z,21.65
2019-06-07T03:11:08.628Z,16.12
2019-06-07T03:13:42.291Z,15.55
2019-06-07T03:16:23.204Z,14.83
2019-06-07T03:19:01.307Z,18.57
2019-06-07T03:21:37.465Z,15.15
2019-06-07T03:24:10.219Z,15.05
2019-06-07T03:31:48.494Z,16.50
2019-06-07T03:34:21.178Z,15.38
2019-06-07T03:36:53.953Z,14.00
2019-06-07T03:39:28.396Z,16.85
2019-06-07T03:44:37.775Z,20.12
2019-06-07T03:49:42.616Z,13.25
2019-06-07T03:54:45.488Z,18.02
2019-06-07T03:57:18.062Z,13.75
2019-06-07T03:59:51.514Z,15.48
2019-06-07T04:02:24.233Z,14.00
2019-06-07T04:04:56.662Z,15.53
2019-06-07T04:07:30.665Z,9.55
2019-06-07T04:10:05.346Z,11.50
2019-06-07T04:12:41.200Z,13.58
2019-06-07T04:15:12.345Z,13.62
2019-06-07T04:18:00.733Z,7.87
2019-06-07T04:22:50.382Z,12.20
2019-06-07T04:25:23.397Z,11.53
2019-06-07T04:27:55.949Z,12.18
2019-06-07T04:30:41.893Z,15.25
2019-06-07T04:33:15.463Z,11.88
2019-06-07T04:35:48.224Z,16.50
2019-06-07T04:38:21.522Z,17.07
2019-06-07T04:40:55.145Z,15.28
2019-06-07T04:43:31.455Z,22.40
2019-06-07T04:46:05.088Z,14.38
2019-06-07T04:48:42.984Z,15.63
2019-06-07T04:51:15.483Z,12.88
2019-06-07T04:53:47.938Z,17.23
2019-06-07T04:56:20.821Z,10.60
2019-06-07T04:58:53.439Z,15.38
2019-06-07T05:01:27.617Z,15.83
2019-06-07T05:03:59.890Z,14.20
2019-06-07T05:06:34.843Z,26.85
2019-06-07T05:09:07.293Z,21.55
2019-06-07T05:11:44.852Z,23.07
2019-06-07T05:14:13.671Z,28.10
2019-06-07T05:16:46.456Z,27.75
2019-06-07T05:19:19.271Z,23.12
2019-06-07T05:22:03.651Z,29.52
2019-06-07T05:24:26.133Z,29.02
2019-06-07T05:26:58.607Z,21.65
2019-06-07T05:29:33.290Z,20.57
2019-06-07T05:32:05.403Z,15.30
2019-06-07T05:34:41.916Z,13.95
2019-06-07T05:37:12.395Z,11.88
2019-06-07T05:39:46.483Z,17.30
2019-06-07T05:42:18.984Z,25.80
2019-06-07T05:44:51.565Z,22.50
2019-06-07T05:47:25.504Z,23.02
2019-06-07T05:49:58.045Z,22.90
2019-06-07T05:52:30.659Z,20.27
2019-06-07T05:55:03.615Z,15.08
2019-06-07T05:57:38.115Z,19.48
2019-06-07T06:00:10.108Z,15.90
2019-06-07T06:03:00.218Z,24.65
2019-06-07T06:05:32.574Z,12.88
2019-06-07T06:07:51.174Z,13.05
2019-06-07T06:10:23.688Z,12.73
2019-06-07T06:12:56.261Z,17.62
2019-06-07T06:15:42.501Z,24.40
2019-06-07T06:18:03.486Z,14.95
2019-06-07T06:21:02.219Z,22.00
2019-06-07T06:23:10.470Z,17.32
2019-06-07T06:25:50.849Z,12.82
2019-06-07T06:28:17.264Z,18.48
2019-06-07T06:30:50.094Z,20.70
2019-06-07T06:33:33.490Z,25.25
2019-06-07T06:35:56.838Z,16.97
2019-06-07T06:38:29.410Z,40.40
2019-06-07T06:41:15.040Z,18.20
2019-06-07T06:43:38.348Z,22.85
2019-06-07T06:46:10.629Z,23.35
2019-06-07T06:48:50.928Z,18.27
2019-06-07T06:51:17.109Z,21.50
2019-06-07T06:53:52.559Z,14.93
2019-06-07T06:56:25.639Z,21.75
2019-06-07T06:59:35.158Z,19.75
2019-06-07T07:01:33.152Z,8.93
2019-06-07T07:20:02.618Z,10.10
2019-06-07T07:22:36.268Z,11.17
2019-06-07T07:25:09.249Z,10.88
2019-06-07T07:27:42.435Z,7.00
2019-06-07T07:30:36.623Z,8.58
2019-06-07T07:32:51.298Z,5.33
2019-06-07T07:35:24.129Z,5.03
2019-06-07T07:38:00.323Z,8.40
2019-06-07T07:40:57.054Z,5.08
2019-06-07T07:43:07.692Z,4.95
2019-06-07T07:45:40.328Z,9.38
2019-06-07T07:48:17.829Z,8.15
2019-06-07T07:50:49.677Z,13.72
2019-06-07T07:53:21.173Z,30.12
2019-06-07T07:55:59.685Z,27.82
2019-06-07T07:58:27.977Z,19.00
2019-06-07T08:01:10.158Z,17.70
2019-06-07T08:03:34.780Z,23.62
2019-06-07T08:06:07.560Z,15.15
2019-06-07T08:08:40.023Z,15.83
2019-06-07T08:11:12.954Z,9.18
2019-06-07T08:13:45.795Z,10.93
2019-06-07T08:16:19.927Z,9.88
2019-06-07T08:18:57.011Z,7.67
2019-06-07T08:21:27.395Z,6.00
2019-06-07T08:24:03.594Z,8.60
2019-06-07T08:26:33.713Z,6.03
2019-06-07T08:29:06.215Z,6.72
2019-06-07T08:31:38.972Z,6.80
2019-06-07T08:34:11.244Z,5.00
2019-06-07T08:36:43.906Z,7.37
2019-06-07T08:39:16.381Z,7.03
2019-06-07T08:41:59.416Z,8.90
2019-06-07T08:44:25.612Z,8.58
2019-06-07T08:47:16.721Z,5.50
2019-06-07T08:49:32.630Z,3.90
2019-06-07T08:52:11.491Z,5.67
2019-06-07T08:54:39.623Z,4.47
2019-06-07T08:57:21.286Z,6.83
2019-06-07T08:59:46.225Z,6.80
2019-06-07T09:02:23.729Z,8.88
2019-06-07T09:04:56.380Z,7.00
2019-06-07T09:07:27.022Z,3.83
2019-06-07T09:10:01.826Z,7.58
2019-06-07T09:12:33.920Z,7.50
2019-06-07T09:15:20.628Z,8.60
2019-06-07T09:18:29.729Z,5.40
2019-06-07T09:20:35.630Z,10.90
2019-06-07T09:22:51.902Z,6.45
2019-06-07T09:25:24.597Z,8.10
2019-06-07T09:28:00.677Z,9.67
2019-06-07T09:30:45.077Z,8.98
2019-06-07T09:33:17.470Z,9.23
2019-06-07T09:35:50.117Z,16.17
2019-06-07T09:38:26.194Z,19.25
2019-06-07T09:40:58.124Z,30.88
2019-06-07T09:44:00.580Z,20.10
2019-06-07T09:46:11.843Z,21.55
2019-06-07T09:51:19.349Z,38.85
2019-06-07T09:53:46.898Z,40.65
2019-06-07T09:56:20.808Z,12.58
2019-06-07T09:58:54.390Z,9.65
2019-06-07T10:01:27.093Z,6.80
2019-06-07T10:04:04.644Z,6.63
2019-06-07T10:06:33.775Z,8.98
2019-06-07T10:11:42.818Z,7.25
2019-06-07T10:14:15.341Z,8.28
2019-06-07T10:16:48.521Z,5.17
2019-06-07T10:33:55.962Z,18.90
2019-06-07T10:36:28.559Z,25.90
2019-06-07T10:39:01.127Z,44.70
2019-06-07T10:41:35.293Z,32.03
2019-06-07T10:44:09.308Z,53.23
2019-06-07T10:46:41.887Z,37.35
2019-06-07T10:49:14.783Z,67.30
2019-06-07T10:51:47.346Z,41.07
2019-06-07T10:54:26.795Z,26.80
2019-06-07T10:56:53.935Z,14.85
2019-06-07T10:59:26.416Z,19.50
2019-06-07T11:01:59.188Z,43.63
2019-06-07T11:04:31.866Z,16.80
2019-06-07T11:07:05.020Z,31.20
2019-06-07T11:09:38.263Z,54.33
2019-06-07T11:12:10.970Z,10.80
2019-06-07T11:14:43.720Z,13.55
2019-06-07T11:17:17.864Z,8.10
2019-06-07T11:19:50.404Z,11.65
2019-06-07T11:22:22.778Z,8.15
2019-06-07T11:24:55.354Z,12.13
2019-06-07T11:27:28.141Z,11.55
2019-06-07T11:30:00.918Z,8.28
2019-06-07T11:32:33.503Z,10.13
2019-06-07T11:35:08.463Z,13.38
2019-06-07T11:37:40.912Z,12.43
2019-06-07T11:40:32.078Z,22.37
2019-06-07T11:42:48.313Z,16.75
2019-06-07T11:45:21.297Z,15.83
2019-06-07T11:47:53.671Z,14.68
2019-06-07T11:50:26.251Z,15.00
2019-06-07T11:52:58.981Z,9.13
2019-06-07T11:55:31.814Z,14.60
2019-06-07T11:58:04.491Z,17.43
2019-06-07T12:00:37.994Z,17.65
2019-06-07T12:03:11.536Z,10.77
2019-06-07T12:08:16.644Z,14.38
2019-06-07T12:10:49.218Z,14.93
2019-06-07T12:13:22.018Z,16.05
2019-06-07T12:15:54.886Z,8.58
2019-06-07T12:18:27.674Z,6.87
2019-06-07T12:21:00.258Z,10.33
2019-06-07T12:23:32.832Z,6.07
2019-06-07T12:26:05.509Z,9.60
2019-06-07T12:28:38.287Z,8.53
2019-06-07T12:31:10.965Z,9.10
2019-06-07T12:33:43.442Z,8.07
2019-06-07T12:36:16.169Z,8.68
2019-06-07T12:38:48.695Z,8.90
2019-06-07T12:41:22.398Z,11.22
2019-06-07T12:43:59.098Z,8.80
2019-06-07T12:46:30.016Z,13.22
2019-06-07T12:49:02.698Z,12.07
2019-06-07T12:51:35.066Z,10.10
2019-06-07T12:54:07.852Z,10.23
2019-06-07T12:56:40.425Z,9.87
2019-06-07T12:59:13.893Z,9.60
2019-06-07T13:01:46.313Z,13.08
2019-06-07T13:06:51.144Z,9.25
2019-06-07T13:09:24.019Z,9.80
2019-06-07T13:11:56.725Z,17.35
2019-06-07T13:14:29.284Z,11.25
2019-06-07T13:17:01.668Z,11.68
2019-06-07T13:19:34.168Z,13.77
2019-06-07T13:22:07.125Z,13.13
2019-06-07T13:24:39.698Z,10.60
2019-06-07T13:27:12.178Z,10.90
2019-06-07T13:29:44.860Z,9.90
2019-06-07T13:32:17.570Z,9.73
2019-06-07T13:34:50.218Z,9.00
2019-06-07T13:37:23.394Z,11.63
2019-06-07T13:39:55.989Z,7.00
2019-06-07T13:42:28.766Z,12.68
2019-06-07T13:45:01.448Z,16.20
2019-06-07T13:47:33.919Z,10.53
2019-06-07T13:50:09.959Z,9.67
2019-06-07T13:52:46.744Z,15.75
2019-06-07T13:55:20.099Z,12.80
2019-06-07T13:57:52.523Z,12.03
2019-06-07T14:00:26.503Z,14.58
2019-06-07T14:02:59.052Z,17.15
2019-06-07T14:05:31.630Z,17.17
2019-06-07T14:08:04.369Z,17.55
2019-06-07T14:10:36.944Z,11.67
2019-06-07T14:13:09.625Z,10.33
2019-06-07T14:15:42.471Z,13.93
2019-06-07T14:18:15.909Z,22.25
2019-06-07T14:20:48.483Z,9.70
2019-06-07T14:23:38.862Z,9.03
2019-06-07T14:25:54.973Z,12.65
2019-06-07T14:28:30.836Z,16.67
2019-06-07T14:31:01.869Z,13.15
2019-06-07T14:33:34.344Z,15.40
2019-06-07T14:36:07.123Z,11.00
2019-06-07T14:38:39.803Z,13.03
2019-06-07T14:41:12.277Z,7.87
2019-06-07T14:43:45.209Z,11.70
2019-06-07T14:46:17.636Z,9.90
2019-06-07T14:48:50.222Z,10.43
2019-06-07T14:51:24.166Z,9.50
2019-06-07T14:53:56.597Z,6.47
2019-06-07T14:56:29.640Z,4.87
2019-06-07T14:59:02.376Z,6.12
2019-06-07T15:01:35.666Z,11.35
2019-06-07T15:04:08.446Z,9.23
2019-06-07T15:06:41.224Z,14.93
2019-06-07T15:09:13.706Z,9.35
2019-06-07T15:11:46.483Z,9.20
2019-06-07T15:14:19.062Z,6.95
2019-06-07T15:16:52.535Z,5.80
2019-06-07T15:19:24.978Z,8.83
2019-06-07T15:21:57.715Z,6.25
2019-06-07T15:27:10.652Z,9.63
2019-06-07T15:29:43.330Z,8.78
2019-06-07T15:32:15.910Z,8.28
2019-06-07T15:34:49.411Z,6.55
2019-06-07T15:37:22.184Z,7.03
2019-06-07T15:42:40.680Z,5.70
2019-06-07T15:45:00.025Z,8.58
2019-06-07T15:50:08.353Z,5.00
2019-06-07T15:52:43.177Z,7.65
2019-06-07T15:55:15.606Z,6.22
2019-06-07T15:57:48.034Z,5.22
2019-06-07T16:02:53.904Z,5.37
2019-06-07T16:05:26.190Z,7.20
2019-06-07T16:10:30.842Z,6.60
2019-06-07T16:13:03.317Z,6.92
2019-06-07T16:15:37.399Z,9.20
2019-06-07T16:18:09.784Z,11.28
2019-06-07T16:20:43.770Z,9.05
2019-06-07T16:23:17.093Z,6.10
2019-06-07T16:25:51.099Z,6.60
2019-06-07T16:28:24.227Z,6.70
2019-06-07T16:30:56.574Z,8.90
2019-06-07T16:33:29.241Z,4.53
2019-06-07T16:38:36.280Z,6.25
2019-06-07T16:41:10.763Z,6.40
2019-06-07T16:43:44.777Z,7.58
2019-06-07T16:46:17.154Z,8.85
2019-06-07T16:48:49.823Z,7.92
2019-06-07T16:51:22.814Z,10.72
2019-06-07T16:53:56.036Z,12.37
2019-06-07T16:56:28.485Z,10.90
2019-06-07T16:59:01.606Z,9.23
2019-06-07T17:01:34.567Z,13.43
2019-06-07T17:04:07.058Z,10.30
2019-06-07T17:06:39.567Z,7.87
2019-06-07T17:09:12.092Z,6.80
2019-06-07T17:11:44.766Z,6.90
2019-06-07T17:14:17.143Z,4.85
2019-06-07T17:16:50.306Z,8.80
2019-06-07T17:19:23.011Z,7.75
2019-06-07T17:21:55.590Z,6.10
2019-06-07T17:24:29.037Z,8.15
2019-06-07T17:27:01.460Z,9.45
2019-06-07T17:29:34.246Z,10.23
2019-06-07T17:32:06.925Z,7.40
2019-06-07T17:34:39.924Z,4.97
2019-06-07T17:37:12.355Z,9.57
2019-06-07T17:39:45.092Z,13.62
2019-06-07T17:42:17.482Z,5.25
2019-06-07T17:44:51.338Z,10.08
2019-06-07T17:47:23.821Z,7.78
2019-06-07T17:49:56.608Z,8.73
2019-06-07T17:52:29.488Z,7.85
2019-06-07T17:55:02.277Z,9.15
2019-06-07T17:57:34.961Z,7.12
2019-06-07T18:00:28.142Z,8.23
2019-06-07T18:02:47.378Z,8.25
2019-06-07T18:05:20.211Z,13.50
2019-06-07T18:07:53.880Z,8.77
2019-06-07T18:10:38.231Z,7.42
2019-06-07T18:13:10.929Z,10.80
2019-06-07T18:15:52.868Z,10.20
2019-06-07T18:18:22.813Z,7.25
2019-06-07T18:20:55.711Z,8.23
2019-06-07T18:23:28.270Z,8.77
2019-06-07T18:26:00.769Z,9.18
2019-06-07T18:28:33.320Z,11.65
2019-06-07T18:31:06.003Z,17.80
2019-06-07T18:33:38.578Z,9.38
2019-06-07T18:36:11.053Z,15.80
2019-06-07T18:38:43.837Z,12.07
2019-06-07T18:41:16.634Z,10.95
2019-06-07T18:43:49.265Z,10.03
2019-06-07T18:46:21.675Z,12.40
2019-06-07T18:48:54.761Z,16.82
2019-06-07T18:51:27.641Z,11.95
2019-06-07T18:54:00.220Z,12.13
2019-06-07T18:56:34.132Z,10.25
2019-06-07T18:59:06.507Z,11.05
2019-06-07T19:01:38.872Z,12.98
2019-06-07T19:04:11.455Z,11.22
2019-06-07T19:06:44.951Z,10.05
2019-06-07T19:09:17.839Z,18.23
2019-06-07T19:11:50.893Z,8.93
2019-06-07T19:14:36.256Z,10.00
2019-06-07T19:16:57.599Z,12.70
2019-06-07T19:19:30.189Z,10.03
2019-06-07T19:22:02.774Z,15.93
2019-06-07T19:24:35.348Z,17.07
2019-06-07T19:27:07.831Z,17.10
2019-06-07T19:29:41.164Z,16.32
2019-06-07T19:32:14.003Z,15.45
2019-06-07T19:34:46.706Z,25.55
2019-06-07T19:37:19.057Z,24.20
2019-06-07T19:39:51.767Z,33.75
2019-06-07T19:42:24.413Z,15.00
2019-06-07T19:45:09.727Z,10.88
2019-06-07T19:47:31.210Z,14.03
2019-06-07T19:50:04.088Z,7.62
2019-06-07T19:52:36.566Z,13.67
2019-06-07T19:55:10.468Z,10.58
2019-06-07T19:57:44.179Z,8.38
2019-06-07T20:00:18.295Z,9.65
2019-06-07T20:02:50.976Z,12.40
2019-06-07T20:05:23.764Z,13.70
2019-06-07T20:07:56.516Z,10.78
2019-06-07T20:10:29.233Z,9.98
2019-06-07T20:13:02.954Z,10.93
2019-06-07T20:18:07.681Z,14.23
2019-06-07T20:20:40.346Z,12.78
2019-06-07T20:23:13.124Z,11.20
2019-06-07T20:25:45.626Z,9.95
2019-06-07T20:28:18.180Z,11.10
2019-06-07T20:30:52.257Z,10.28
2019-06-07T20:35:56.685Z,10.00
2019-06-07T20:38:29.390Z,10.50
2019-06-07T20:41:01.783Z,11.25
2019-06-07T20:43:34.466Z,11.60
2019-06-07T20:46:08.202Z,13.22
2019-06-07T20:48:40.846Z,10.38
2019-06-07T20:51:13.378Z,12.25
2019-06-07T20:53:45.687Z,9.40
2019-06-07T20:56:18.356Z,8.90
2019-06-07T20:58:51.057Z,8.50
2019-06-07T21:01:23.737Z,12.75
2019-06-07T21:03:56.408Z,10.20
2019-06-07T21:06:29.093Z,10.25
2019-06-07T21:09:01.769Z,11.95
2019-06-07T21:11:36.187Z,16.20
2019-06-07T21:14:08.774Z,14.73
2019-06-07T21:16:41.294Z,15.95
2019-06-07T21:19:14.021Z,15.85
2019-06-07T21:21:46.724Z,12.78
2019-06-07T21:24:19.181Z,15.32
2019-06-07T21:26:53.362Z,13.72
2019-06-07T21:31:57.318Z,11.28
2019-06-07T21:34:30.101Z,14.80
2019-06-07T21:37:03.769Z,12.63
2019-06-07T21:39:37.204Z,16.15
2019-06-07T21:42:10.292Z,13.43
2019-06-07T21:44:42.769Z,18.82
2019-06-07T21:47:15.446Z,13.00
2019-06-07T21:49:48.135Z,14.75
2019-06-07T21:52:20.707Z,14.23
2019-06-07T21:54:53.280Z,15.08
2019-06-07T21:57:26.068Z,10.70
2019-06-07T21:59:58.637Z,11.55
2019-06-07T22:02:31.214Z,12.65
2019-06-07T22:05:05.626Z,10.48
2019-06-07T22:07:38.344Z,10.60
2019-06-07T22:10:12.509Z,10.93
2019-06-07T22:12:45.016Z,9.45
2019-06-07T22:15:32.169Z,8.03
2019-06-07T22:17:52.417Z,6.62
2019-06-07T22:20:24.992Z,9.58
2019-06-07T22:22:57.780Z,6.35
2019-06-07T22:25:30.348Z,9.03
2019-06-07T22:28:02.930Z,11.55
2019-06-07T22:30:35.411Z,7.95
2019-06-07T22:33:08.650Z,6.60
2019-06-07T22:35:41.178Z,7.47
2019-06-07T22:38:14.266Z,8.45
2019-06-07T22:40:46.839Z,11.68
2019-06-07T22:43:19.599Z,7.05
2019-06-07T22:45:52.301Z,7.62
2019-06-07T22:48:24.781Z,7.70
2019-06-07T22:50:59.081Z,6.05
2019-06-07T22:53:31.776Z,8.98
2019-06-07T22:56:05.989Z,15.20
2019-06-07T22:58:38.771Z,14.87
2019-06-07T23:01:12.543Z,12.90
2019-06-07T23:03:44.962Z,9.35
2019-06-07T23:06:17.437Z,13.72
2019-06-07T23:08:50.219Z,10.80
2019-06-07T23:11:22.782Z,11.33
2019-06-07T23:13:55.364Z,12.00
2019-06-07T23:16:28.558Z,10.85
2019-06-07T23:19:01.029Z,7.70
2019-06-07T23:21:33.713Z,9.05
2019-06-07T23:24:06.493Z,13.22
2019-06-07T23:26:39.069Z,9.38
2019-06-07T23:29:12.465Z,14.55
2019-06-07T23:31:45.044Z,11.48
2019-06-07T23:34:18.761Z,7.12
2019-06-07T23:36:51.228Z,16.65
2019-06-07T23:39:23.902Z,11.22
2019-06-07T23:41:56.478Z,10.32
2019-06-07T23:44:29.058Z,11.70
2019-06-07T23:47:10.880Z,11.08
2019-06-07T23:49:35.953Z,13.43
2019-06-07T23:52:08.732Z,11.90
2019-06-07T23:54:41.210Z,10.53
2019-06-07T23:57:14.038Z,10.93
2019-06-07T23:59:46.565Z,11.43
